sensor_id;sensor_type;location;lat;lon;timestamp;pressure;altitude;pressure_sealevel;temperature;humidity
20156;BME280;10238;49.556;10.956;2022-07-23T00:00:44;98146.66;;;21.40;90.42
20156;BME280;10238;49.556;10.956;2022-07-23T00:03:14;98150.88;;;21.36;93.16
20156;BME280;10238;49.556;10.956;2022-07-23T00:05:43;98163.19;;;21.32;92.00
20156;BME280;10238;49.556;10.956;2022-07-23T00:08:12;98168.00;;;21.30;90.19
20156;BME280;10238;49.556;10.956;2022-07-23T00:10:46;98166.09;;;21.30;91.68
20156;BME280;10238;49.556;10.956;2022-07-23T00:13:37;98166.94;;;21.31;91.11
20156;BME280;10238;49.556;10.956;2022-07-23T00:16:08;98179.84;;;21.29;96.86
20156;BME280;10238;49.556;10.956;2022-07-23T00:18:37;98170.56;;;21.25;96.20
20156;BME280;10238;49.556;10.956;2022-07-23T00:21:07;98171.84;;;21.22;90.67
20156;BME280;10238;49.556;10.956;2022-07-23T00:23:39;98165.00;;;21.20;92.97
20156;BME280;10238;49.556;10.956;2022-07-23T00:26:14;98162.16;;;21.15;95.85
20156;BME280;10238;49.556;10.956;2022-07-23T00:28:47;98153.06;;;21.09;96.72
20156;BME280;10238;49.556;10.956;2022-07-23T00:31:16;98154.81;;;21.04;94.95
20156;BME280;10238;49.556;10.956;2022-07-23T00:33:45;98148.19;;;21.00;97.62
20156;BME280;10238;49.556;10.956;2022-07-23T00:36:16;98142.84;;;20.93;96.90
20156;BME280;10238;49.556;10.956;2022-07-23T00:38:45;98140.81;;;20.89;96.87
20156;BME280;10238;49.556;10.956;2022-07-23T00:41:15;98132.53;;;20.84;99.30
20156;BME280;10238;49.556;10.956;2022-07-23T00:43:44;98141.09;;;20.81;100.00
20156;BME280;10238;49.556;10.956;2022-07-23T00:46:19;98133.88;;;20.75;100.00
20156;BME280;10238;49.556;10.956;2022-07-23T00:48:48;98124.00;;;20.69;95.68
20156;BME280;10238;49.556;10.956;2022-07-23T00:51:17;98121.50;;;20.67;100.00
20156;BME280;10238;49.556;10.956;2022-07-23T00:53:47;98104.06;;;20.63;100.00
20156;BME280;10238;49.556;10.956;2022-07-23T00:56:17;98114.53;;;20.60;100.00
20156;BME280;10238;49.556;10.956;2022-07-23T00:58:46;98115.41;;;20.54;100.00
20156;BME280;10238;49.556;10.956;2022-07-23T01:01:15;98107.53;;;20.52;100.00
20156;BME280;10238;49.556;10.956;2022-07-23T01:03:44;98094.25;;;20.51;100.00
20156;BME280;10238;49.556;10.956;2022-07-23T01:06:14;98094.69;;;20.48;100.00
20156;BME280;10238;49.556;10.956;2022-07-23T01:08:43;98099.47;;;20.46;100.00
20156;BME280;10238;49.556;10.956;2022-07-23T01:11:17;98102.63;;;20.43;100.00
20156;BME280;10238;49.556;10.956;2022-07-23T01:13:48;98104.75;;;20.41;100.00
20156;BME280;10238;49.556;10.956;2022-07-23T01:16:16;98104.75;;;20.41;100.00
20156;BME280;10238;49.556;10.956;2022-07-23T01:18:47;98105.19;;;20.38;100.00
20156;BME280;10238;49.556;10.956;2022-07-23T01:21:18;98111.03;;;20.35;100.00
20156;BME280;10238;49.556;10.956;2022-07-23T01:24:01;98115.81;;;20.33;100.00
20156;BME280;10238;49.556;10.956;2022-07-23T01:26:31;98119.56;;;20.32;100.00
20156;BME280;10238;49.556;10.956;2022-07-23T01:29:02;98114.41;;;20.30;100.00
20156;BME280;10238;49.556;10.956;2022-07-23T01:31:42;98120.03;;;20.29;100.00
20156;BME280;10238;49.556;10.956;2022-07-23T01:34:31;98117.75;;;20.26;100.00
20156;BME280;10238;49.556;10.956;2022-07-23T01:37:20;98112.38;;;20.26;100.00
20156;BME280;10238;49.556;10.956;2022-07-23T01:39:51;98109.88;;;20.24;100.00
20156;BME280;10238;49.556;10.956;2022-07-23T01:42:19;98128.38;;;20.21;100.00
20156;BME280;10238;49.556;10.956;2022-07-23T01:44:48;98119.25;;;20.22;100.00
20156;BME280;10238;49.556;10.956;2022-07-23T01:47:18;98125.69;;;20.21;100.00
20156;BME280;10238;49.556;10.956;2022-07-23T01:49:47;98132.13;;;20.20;100.00
20156;BME280;10238;49.556;10.956;2022-07-23T01:52:16;98127.34;;;20.22;100.00
20156;BME280;10238;49.556;10.956;2022-07-23T01:54:45;98147.28;;;20.21;100.00
20156;BME280;10238;49.556;10.956;2022-07-23T01:57:15;98151.03;;;20.20;100.00
20156;BME280;10238;49.556;10.956;2022-07-23T01:59:44;98160.19;;;20.19;100.00
20156;BME280;10238;49.556;10.956;2022-07-23T02:02:13;98169.56;;;20.16;100.00
20156;BME280;10238;49.556;10.956;2022-07-23T02:04:42;98150.88;;;20.15;100.00
20156;BME280;10238;49.556;10.956;2022-07-23T02:07:11;98151.09;;;20.13;100.00
20156;BME280;10238;49.556;10.956;2022-07-23T02:09:40;98150.69;;;20.10;100.00
20156;BME280;10238;49.556;10.956;2022-07-23T02:12:09;98156.91;;;20.10;100.00
20156;BME280;10238;49.556;10.956;2022-07-23T02:14:39;98148.19;;;20.08;100.00
20156;BME280;10238;49.556;10.956;2022-07-23T02:17:12;98158.16;;;20.08;100.00
20156;BME280;10238;49.556;10.956;2022-07-23T02:19:41;98147.44;;;20.01;100.00
20156;BME280;10238;49.556;10.956;2022-07-23T02:22:10;98137.66;;;20.00;100.00
20156;BME280;10238;49.556;10.956;2022-07-23T02:24:39;98133.72;;;20.03;100.00
20156;BME280;10238;49.556;10.956;2022-07-23T02:27:07;98126.63;;;20.02;100.00
20156;BME280;10238;49.556;10.956;2022-07-23T02:29:36;98116.91;;;20.01;100.00
20156;BME280;10238;49.556;10.956;2022-07-23T02:32:07;98119.38;;;20.02;100.00
20156;BME280;10238;49.556;10.956;2022-07-23T02:34:36;98115.84;;;20.02;100.00
20156;BME280;10238;49.556;10.956;2022-07-23T02:37:05;98104.28;;;19.95;100.00
20156;BME280;10238;49.556;10.956;2022-07-23T02:39:36;98115.06;;;19.95;100.00
20156;BME280;10238;49.556;10.956;2022-07-23T02:42:05;98113.44;;;19.94;100.00
20156;BME280;10238;49.556;10.956;2022-07-23T02:44:34;98118.44;;;19.90;100.00
20156;BME280;10238;49.556;10.956;2022-07-23T02:47:04;98114.31;;;19.88;100.00
20156;BME280;10238;49.556;10.956;2022-07-23T02:49:34;98118.06;;;19.87;100.00
20156;BME280;10238;49.556;10.956;2022-07-23T02:52:04;98113.09;;;19.84;100.00
20156;BME280;10238;49.556;10.956;2022-07-23T02:54:33;98105.00;;;19.84;100.00
20156;BME280;10238;49.556;10.956;2022-07-23T02:57:04;98102.56;;;19.76;100.00
20156;BME280;10238;49.556;10.956;2022-07-23T02:59:33;98098.66;;;19.72;100.00
20156;BME280;10238;49.556;10.956;2022-07-23T03:02:02;98100.31;;;19.73;100.00
20156;BME280;10238;49.556;10.956;2022-07-23T03:04:31;98099.09;;;19.69;100.00
20156;BME280;10238;49.556;10.956;2022-07-23T03:07:02;98104.72;;;19.67;100.00
20156;BME280;10238;49.556;10.956;2022-07-23T03:09:31;98098.47;;;19.67;100.00
20156;BME280;10238;49.556;10.956;2022-07-23T03:12:00;98102.22;;;19.66;100.00
20156;BME280;10238;49.556;10.956;2022-07-23T03:14:29;98103.09;;;19.60;100.00
20156;BME280;10238;49.556;10.956;2022-07-23T03:16:58;98102.06;;;19.61;100.00
20156;BME280;10238;49.556;10.956;2022-07-23T03:19:27;98114.94;;;19.59;100.00
20156;BME280;10238;49.556;10.956;2022-07-23T03:21:56;98117.00;;;19.57;100.00
20156;BME280;10238;49.556;10.956;2022-07-23T03:24:27;98125.16;;;19.50;100.00
20156;BME280;10238;49.556;10.956;2022-07-23T03:27:17;98122.91;;;19.41;100.00
20156;BME280;10238;49.556;10.956;2022-07-23T03:29:46;98114.25;;;19.39;100.00
20156;BME280;10238;49.556;10.956;2022-07-23T03:32:15;98117.94;;;19.38;100.00
20156;BME280;10238;49.556;10.956;2022-07-23T03:34:44;98126.25;;;19.36;100.00
20156;BME280;10238;49.556;10.956;2022-07-23T03:37:13;98123.81;;;19.28;100.00
20156;BME280;10238;49.556;10.956;2022-07-23T03:39:45;98114.69;;;19.22;100.00
20156;BME280;10238;49.556;10.956;2022-07-23T03:42:14;98123.81;;;19.21;100.00
20156;BME280;10238;49.556;10.956;2022-07-23T03:44:42;98125.91;;;19.19;100.00
20156;BME280;10238;49.556;10.956;2022-07-23T03:47:11;98127.97;;;19.17;100.00
20156;BME280;10238;49.556;10.956;2022-07-23T03:49:40;98133.16;;;19.12;100.00
20156;BME280;10238;49.556;10.956;2022-07-23T03:52:10;98117.47;;;19.09;100.00
20156;BME280;10238;49.556;10.956;2022-07-23T03:54:39;98128.47;;;19.08;100.00
20156;BME280;10238;49.556;10.956;2022-07-23T03:57:09;98138.81;;;19.04;100.00
20156;BME280;10238;49.556;10.956;2022-07-23T03:59:38;98125.97;;;19.00;100.00
20156;BME280;10238;49.556;10.956;2022-07-23T04:02:07;98128.88;;;18.98;100.00
20156;BME280;10238;49.556;10.956;2022-07-23T04:04:36;98134.28;;;18.98;100.00
20156;BME280;10238;49.556;10.956;2022-07-23T04:07:05;98144.44;;;18.96;100.00
20156;BME280;10238;49.556;10.956;2022-07-23T04:09:35;98143.41;;;18.91;100.00
20156;BME280;10238;49.556;10.956;2022-07-23T04:12:04;98144.69;;;18.88;100.00
20156;BME280;10238;49.556;10.956;2022-07-23T04:14:35;98152.75;;;18.88;100.00
20156;BME280;10238;49.556;10.956;2022-07-23T04:17:04;98150.50;;;18.85;100.00
20156;BME280;10238;49.556;10.956;2022-07-23T04:19:33;98158.38;;;18.87;100.00
20156;BME280;10238;49.556;10.956;2022-07-23T04:22:03;98155.88;;;18.85;100.00
20156;BME280;10238;49.556;10.956;2022-07-23T04:24:32;98152.56;;;18.83;100.00
20156;BME280;10238;49.556;10.956;2022-07-23T04:27:02;98151.34;;;18.86;100.00
20156;BME280;10238;49.556;10.956;2022-07-23T04:29:32;98165.41;;;18.88;100.00
20156;BME280;10238;49.556;10.956;2022-07-23T04:32:03;98163.97;;;18.85;100.00
20156;BME280;10238;49.556;10.956;2022-07-23T04:34:32;98155.88;;;18.92;100.00
20156;BME280;10238;49.556;10.956;2022-07-23T04:37:01;98166.19;;;18.95;100.00
20156;BME280;10238;49.556;10.956;2022-07-23T04:39:30;98167.25;;;18.94;100.00
20156;BME280;10238;49.556;10.956;2022-07-23T04:41:59;98165.97;;;18.96;100.00
20156;BME280;10238;49.556;10.956;2022-07-23T04:44:28;98160.81;;;19.01;100.00
20156;BME280;10238;49.556;10.956;2022-07-23T04:46:57;98163.47;;;19.08;100.00
20156;BME280;10238;49.556;10.956;2022-07-23T04:49:28;98160.56;;;19.09;100.00
20156;BME280;10238;49.556;10.956;2022-07-23T04:51:57;98158.25;;;19.19;100.00
20156;BME280;10238;49.556;10.956;2022-07-23T04:54:26;98161.78;;;19.27;100.00
20156;BME280;10238;49.556;10.956;2022-07-23T04:56:55;98160.28;;;19.31;100.00
20156;BME280;10238;49.556;10.956;2022-07-23T04:59:24;98173.53;;;19.39;100.00
20156;BME280;10238;49.556;10.956;2022-07-23T05:01:53;98163.97;;;19.43;100.00
20156;BME280;10238;49.556;10.956;2022-07-23T05:04:22;98160.44;;;19.49;100.00
20156;BME280;10238;49.556;10.956;2022-07-23T05:06:52;98151.47;;;19.55;100.00
20156;BME280;10238;49.556;10.956;2022-07-23T05:09:21;98168.00;;;19.65;100.00
20156;BME280;10238;49.556;10.956;2022-07-23T05:11:50;98176.03;;;19.71;100.00
20156;BME280;10238;49.556;10.956;2022-07-23T05:14:19;98184.53;;;19.81;100.00
20156;BME280;10238;49.556;10.956;2022-07-23T05:16:49;98185.66;;;19.92;100.00
20156;BME280;10238;49.556;10.956;2022-07-23T05:19:18;98180.03;;;20.00;100.00
20156;BME280;10238;49.556;10.956;2022-07-23T05:21:53;98183.50;;;20.13;100.00
20156;BME280;10238;49.556;10.956;2022-07-23T05:24:22;98178.78;;;20.27;100.00
20156;BME280;10238;49.556;10.956;2022-07-23T05:26:51;98182.88;;;20.36;100.00
20156;BME280;10238;49.556;10.956;2022-07-23T05:29:20;98185.31;;;20.44;100.00
20156;BME280;10238;49.556;10.956;2022-07-23T05:31:49;98181.44;;;20.58;100.00
20156;BME280;10238;49.556;10.956;2022-07-23T05:34:18;98181.31;;;20.71;100.00
20156;BME280;10238;49.556;10.956;2022-07-23T05:36:47;98175.31;;;20.87;100.00
20156;BME280;10238;49.556;10.956;2022-07-23T05:39:18;98164.16;;;21.01;100.00
20156;BME280;10238;49.556;10.956;2022-07-23T05:41:47;98162.88;;;21.22;100.00
20156;BME280;10238;49.556;10.956;2022-07-23T05:44:16;98177.59;;;21.44;100.00
20156;BME280;10238;49.556;10.956;2022-07-23T05:46:45;98180.84;;;21.64;100.00
20156;BME280;10238;49.556;10.956;2022-07-23T05:49:14;98187.09;;;21.83;100.00
20156;BME280;10238;49.556;10.956;2022-07-23T05:51:43;98183.97;;;21.97;100.00
20156;BME280;10238;49.556;10.956;2022-07-23T05:54:13;98192.13;;;22.09;100.00
20156;BME280;10238;49.556;10.956;2022-07-23T05:56:46;98184.84;;;22.21;100.00
20156;BME280;10238;49.556;10.956;2022-07-23T05:59:18;98190.53;;;22.31;100.00
20156;BME280;10238;49.556;10.956;2022-07-23T06:01:46;98193.72;;;22.39;100.00
20156;BME280;10238;49.556;10.956;2022-07-23T06:04:15;98198.53;;;22.49;100.00
20156;BME280;10238;49.556;10.956;2022-07-23T06:06:44;98206.28;;;22.63;100.00
20156;BME280;10238;49.556;10.956;2022-07-23T06:09:13;98210.03;;;22.74;100.00
20156;BME280;10238;49.556;10.956;2022-07-23T06:11:44;98207.91;;;22.87;100.00
20156;BME280;10238;49.556;10.956;2022-07-23T06:14:13;98209.81;;;22.98;100.00
20156;BME280;10238;49.556;10.956;2022-07-23T06:16:42;98210.50;;;23.05;96.90
20156;BME280;10238;49.556;10.956;2022-07-23T06:19:11;98216.97;;;23.16;93.43
20156;BME280;10238;49.556;10.956;2022-07-23T06:21:39;98213.81;;;23.31;90.76
20156;BME280;10238;49.556;10.956;2022-07-23T06:24:14;98209.28;;;23.48;92.01
20156;BME280;10238;49.556;10.956;2022-07-23T06:26:44;98208.53;;;23.64;87.29
20156;BME280;10238;49.556;10.956;2022-07-23T06:29:13;98217.28;;;23.82;85.54
20156;BME280;10238;49.556;10.956;2022-07-23T06:31:42;98208.66;;;23.97;84.21
20156;BME280;10238;49.556;10.956;2022-07-23T06:34:11;98212.00;;;24.15;82.04
20156;BME280;10238;49.556;10.956;2022-07-23T06:36:40;98209.88;;;24.34;81.31
20156;BME280;10238;49.556;10.956;2022-07-23T06:39:09;98218.94;;;24.56;79.16
20156;BME280;10238;49.556;10.956;2022-07-23T06:41:38;98226.41;;;24.77;77.97
20156;BME280;10238;49.556;10.956;2022-07-23T06:44:09;98221.91;;;25.04;78.20
20156;BME280;10238;49.556;10.956;2022-07-23T06:46:38;98224.41;;;25.27;74.88
20156;BME280;10238;49.556;10.956;2022-07-23T06:49:07;98232.06;;;25.47;74.28
20156;BME280;10238;49.556;10.956;2022-07-23T06:51:36;98224.16;;;25.67;72.22
20156;BME280;10238;49.556;10.956;2022-07-23T06:54:05;98232.25;;;25.83;71.39
20156;BME280;10238;49.556;10.956;2022-07-23T06:56:34;98232.94;;;25.95;70.62
20156;BME280;10238;49.556;10.956;2022-07-23T06:59:03;98225.94;;;25.99;70.80
20156;BME280;10238;49.556;10.956;2022-07-23T07:01:34;98238.28;;;26.07;70.88
20156;BME280;10238;49.556;10.956;2022-07-23T07:04:03;98241.38;;;26.15;70.54
20156;BME280;10238;49.556;10.956;2022-07-23T07:06:32;98241.47;;;26.25;69.65
20156;BME280;10238;49.556;10.956;2022-07-23T07:09:02;98253.84;;;26.38;68.88
20156;BME280;10238;49.556;10.956;2022-07-23T07:11:31;98254.47;;;26.45;68.25
20156;BME280;10238;49.556;10.956;2022-07-23T07:14:00;98260.03;;;26.55;66.91
20156;BME280;10238;49.556;10.956;2022-07-23T07:16:30;98270.22;;;26.64;66.03
20156;BME280;10238;49.556;10.956;2022-07-23T07:19:01;98268.66;;;26.68;67.16
20156;BME280;10238;49.556;10.956;2022-07-23T07:21:30;98280.16;;;26.75;66.29
20156;BME280;10238;49.556;10.956;2022-07-23T07:24:00;98278.03;;;26.82;66.76
20156;BME280;10238;49.556;10.956;2022-07-23T07:26:29;98270.97;;;26.86;65.83
20156;BME280;10238;49.556;10.956;2022-07-23T07:28:58;98281.88;;;26.86;66.23
20156;BME280;10238;49.556;10.956;2022-07-23T07:31:28;98284.66;;;26.91;65.57
20156;BME280;10238;49.556;10.956;2022-07-23T07:33:58;98284.13;;;26.94;65.49
20156;BME280;10238;49.556;10.956;2022-07-23T07:36:28;98296.38;;;26.92;63.84
20156;BME280;10238;49.556;10.956;2022-07-23T07:38:57;98288.38;;;26.80;65.01
20156;BME280;10238;49.556;10.956;2022-07-23T07:41:27;98306.59;;;26.75;64.87
20156;BME280;10238;49.556;10.956;2022-07-23T07:43:55;98318.81;;;26.67;64.63
20156;BME280;10238;49.556;10.956;2022-07-23T07:46:25;98318.66;;;26.52;68.70
20156;BME280;10238;49.556;10.956;2022-07-23T07:48:55;98327.16;;;26.34;71.38
20156;BME280;10238;49.556;10.956;2022-07-23T07:51:26;98320.84;;;26.07;75.90
20156;BME280;10238;49.556;10.956;2022-07-23T07:53:56;98328.72;;;25.87;79.63
20156;BME280;10238;49.556;10.956;2022-07-23T07:56:26;98318.31;;;25.63;79.68
20156;BME280;10238;49.556;10.956;2022-07-23T07:58:55;98329.00;;;25.48;81.74
20156;BME280;10238;49.556;10.956;2022-07-23T08:01:24;98334.69;;;25.29;85.36
20156;BME280;10238;49.556;10.956;2022-07-23T08:03:53;98334.19;;;25.16;85.38
20156;BME280;10238;49.556;10.956;2022-07-23T08:06:22;98333.94;;;25.01;86.99
20156;BME280;10238;49.556;10.956;2022-07-23T08:08:50;98344.00;;;24.84;91.66
20156;BME280;10238;49.556;10.956;2022-07-23T08:11:21;98331.22;;;24.68;90.93
20156;BME280;10238;49.556;10.956;2022-07-23T08:13:50;98333.72;;;24.58;89.63
20156;BME280;10238;49.556;10.956;2022-07-23T08:16:19;98336.69;;;24.45;95.25
20156;BME280;10238;49.556;10.956;2022-07-23T08:18:48;98335.34;;;24.31;96.44
20156;BME280;10238;49.556;10.956;2022-07-23T08:21:16;98321.47;;;24.16;100.00
20156;BME280;10238;49.556;10.956;2022-07-23T08:23:46;98313.53;;;23.98;100.00
20156;BME280;10238;49.556;10.956;2022-07-23T08:26:14;98325.09;;;23.82;100.00
20156;BME280;10238;49.556;10.956;2022-07-23T08:28:45;98339.41;;;23.66;100.00
20156;BME280;10238;49.556;10.956;2022-07-23T08:31:14;98327.72;;;23.54;100.00
20156;BME280;10238;49.556;10.956;2022-07-23T08:33:44;98323.97;;;23.43;100.00
20156;BME280;10238;49.556;10.956;2022-07-23T08:36:13;98337.06;;;23.35;100.00
20156;BME280;10238;49.556;10.956;2022-07-23T08:38:43;98334.22;;;23.29;100.00
20156;BME280;10238;49.556;10.956;2022-07-23T08:41:12;98342.81;;;23.26;100.00
20156;BME280;10238;49.556;10.956;2022-07-23T08:43:42;98357.28;;;23.20;100.00
20156;BME280;10238;49.556;10.956;2022-07-23T08:46:13;98351.28;;;23.18;100.00
20156;BME280;10238;49.556;10.956;2022-07-23T08:48:43;98370.84;;;23.20;100.00
20156;BME280;10238;49.556;10.956;2022-07-23T08:51:12;98378.56;;;23.23;100.00
20156;BME280;10238;49.556;10.956;2022-07-23T08:53:42;98383.88;;;23.30;100.00
20156;BME280;10238;49.556;10.956;2022-07-23T08:56:11;98388.94;;;23.38;100.00
20156;BME280;10238;49.556;10.956;2022-07-23T08:58:40;98387.22;;;23.44;100.00
20156;BME280;10238;49.556;10.956;2022-07-23T09:01:09;98391.22;;;23.53;100.00
20156;BME280;10238;49.556;10.956;2022-07-23T09:03:39;98409.25;;;23.59;100.00
20156;BME280;10238;49.556;10.956;2022-07-23T09:06:08;98411.41;;;23.57;100.00
20156;BME280;10238;49.556;10.956;2022-07-23T09:08:39;98428.97;;;23.54;100.00
20156;BME280;10238;49.556;10.956;2022-07-23T09:11:11;98428.63;;;23.39;100.00
20156;BME280;10238;49.556;10.956;2022-07-23T09:13:42;98432.03;;;23.35;100.00
20156;BME280;10238;49.556;10.956;2022-07-23T09:16:16;98436.06;;;23.44;100.00
20156;BME280;10238;49.556;10.956;2022-07-23T09:18:50;98431.34;;;23.51;100.00
20156;BME280;10238;49.556;10.956;2022-07-23T09:21:23;98422.81;;;23.59;100.00
20156;BME280;10238;49.556;10.956;2022-07-23T09:23:57;98418.13;;;23.89;100.00
20156;BME280;10238;49.556;10.956;2022-07-23T09:26:38;98412.88;;;24.22;100.00
20156;BME280;10238;49.556;10.956;2022-07-23T09:29:16;98421.59;;;24.35;100.00
20156;BME280;10238;49.556;10.956;2022-07-23T09:31:49;98425.84;;;24.43;100.00
20156;BME280;10238;49.556;10.956;2022-07-23T09:34:22;98418.25;;;24.45;100.00
20156;BME280;10238;49.556;10.956;2022-07-23T09:36:57;98407.97;;;24.47;100.00
20156;BME280;10238;49.556;10.956;2022-07-23T09:39:29;98405.25;;;24.47;100.00
20156;BME280;10238;49.556;10.956;2022-07-23T09:42:14;98413.03;;;24.55;100.00
20156;BME280;10238;49.556;10.956;2022-07-23T09:44:46;98402.84;;;24.62;100.00
20156;BME280;10238;49.556;10.956;2022-07-23T09:47:16;98400.91;;;24.62;100.00
20156;BME280;10238;49.556;10.956;2022-07-23T09:50:02;98403.72;;;24.79;100.00
20156;BME280;10238;49.556;10.956;2022-07-23T09:52:34;98406.13;;;24.92;100.00
20156;BME280;10238;49.556;10.956;2022-07-23T09:55:06;98402.94;;;24.95;100.00
20156;BME280;10238;49.556;10.956;2022-07-23T09:57:35;98408.72;;;24.98;100.00
20156;BME280;10238;49.556;10.956;2022-07-23T10:00:09;98408.13;;;24.96;100.00
20156;BME280;10238;49.556;10.956;2022-07-23T10:02:40;98419.97;;;24.90;100.00
20156;BME280;10238;49.556;10.956;2022-07-23T10:05:10;98425.97;;;24.76;100.00
20156;BME280;10238;49.556;10.956;2022-07-23T10:07:40;98416.53;;;24.67;100.00
20156;BME280;10238;49.556;10.956;2022-07-23T10:10:11;98421.28;;;24.60;100.00
20156;BME280;10238;49.556;10.956;2022-07-23T10:12:43;98416.84;;;24.42;100.00
20156;BME280;10238;49.556;10.956;2022-07-23T10:15:36;98423.28;;;24.25;100.00
20156;BME280;10238;49.556;10.956;2022-07-23T10:18:05;98438.06;;;24.06;100.00
20156;BME280;10238;49.556;10.956;2022-07-23T10:20:36;98434.88;;;24.09;100.00
20156;BME280;10238;49.556;10.956;2022-07-23T10:23:19;98444.44;;;23.88;100.00
20156;BME280;10238;49.556;10.956;2022-07-23T10:26:02;98432.28;;;23.68;100.00
20156;BME280;10238;49.556;10.956;2022-07-23T10:28:55;98419.06;;;23.83;100.00
20156;BME280;10238;49.556;10.956;2022-07-23T10:31:43;98401.81;;;23.89;100.00
20156;BME280;10238;49.556;10.956;2022-07-23T10:34:41;98395.81;;;23.98;100.00
20156;BME280;10238;49.556;10.956;2022-07-23T10:37:21;98399.47;;;24.04;100.00
20156;BME280;10238;49.556;10.956;2022-07-23T10:40:11;98401.59;;;23.79;100.00
20156;BME280;10238;49.556;10.956;2022-07-23T10:42:41;98389.91;;;23.55;100.00
20156;BME280;10238;49.556;10.956;2022-07-23T10:45:25;98398.75;;;23.39;100.00
20156;BME280;10238;49.556;10.956;2022-07-23T10:47:56;98394.19;;;23.51;100.00
20156;BME280;10238;49.556;10.956;2022-07-23T10:50:42;98402.06;;;23.76;100.00
20156;BME280;10238;49.556;10.956;2022-07-23T10:53:16;98408.19;;;23.83;100.00
20156;BME280;10238;49.556;10.956;2022-07-23T10:55:50;98408.78;;;23.62;100.00
20156;BME280;10238;49.556;10.956;2022-07-23T10:58:23;98407.47;;;23.29;100.00
20156;BME280;10238;49.556;10.956;2022-07-23T11:01:33;98410.97;;;23.18;100.00
20156;BME280;10238;49.556;10.956;2022-07-23T11:04:04;98410.25;;;23.11;100.00
20156;BME280;10238;49.556;10.956;2022-07-23T11:07:07;98412.16;;;23.22;100.00
20156;BME280;10238;49.556;10.956;2022-07-23T11:09:42;98412.66;;;23.31;100.00
20156;BME280;10238;49.556;10.956;2022-07-23T11:12:34;98414.25;;;23.20;100.00
20156;BME280;10238;49.556;10.956;2022-07-23T11:15:07;98414.75;;;23.17;100.00
20156;BME280;10238;49.556;10.956;2022-07-23T11:17:57;98405.81;;;23.28;100.00
20156;BME280;10238;49.556;10.956;2022-07-23T11:20:27;98416.00;;;23.45;100.00
20156;BME280;10238;49.556;10.956;2022-07-23T11:22:58;98417.75;;;23.39;100.00
20156;BME280;10238;49.556;10.956;2022-07-23T11:25:38;98416.94;;;23.50;100.00
20156;BME280;10238;49.556;10.956;2022-07-23T11:28:25;98406.06;;;23.62;100.00
20156;BME280;10238;49.556;10.956;2022-07-23T11:30:55;98400.19;;;23.53;100.00
20156;BME280;10238;49.556;10.956;2022-07-23T11:33:24;98403.72;;;23.65;100.00
20156;BME280;10238;49.556;10.956;2022-07-23T11:36:03;98396.28;;;23.72;100.00
20156;BME280;10238;49.556;10.956;2022-07-23T11:38:32;98392.63;;;23.67;100.00
20156;BME280;10238;49.556;10.956;2022-07-23T11:41:02;98393.31;;;23.74;100.00
20156;BME280;10238;49.556;10.956;2022-07-23T11:43:31;98385.06;;;23.92;100.00
20156;BME280;10238;49.556;10.956;2022-07-23T11:46:00;98388.13;;;24.07;100.00
20156;BME280;10238;49.556;10.956;2022-07-23T11:48:30;98386.09;;;24.14;100.00
20156;BME280;10238;49.556;10.956;2022-07-23T11:51:07;98389.63;;;24.14;100.00
20156;BME280;10238;49.556;10.956;2022-07-23T11:53:36;98390.34;;;24.21;100.00
20156;BME280;10238;49.556;10.956;2022-07-23T11:56:09;98383.66;;;24.40;100.00
20156;BME280;10238;49.556;10.956;2022-07-23T11:58:39;98373.16;;;24.60;100.00
20156;BME280;10238;49.556;10.956;2022-07-23T12:01:23;98373.88;;;25.12;100.00
20156;BME280;10238;49.556;10.956;2022-07-23T12:03:52;98362.41;;;25.60;100.00
20156;BME280;10238;49.556;10.956;2022-07-23T12:06:22;98356.72;;;25.99;100.00
20156;BME280;10238;49.556;10.956;2022-07-23T12:08:51;98354.06;;;26.26;100.00
20156;BME280;10238;49.556;10.956;2022-07-23T12:11:21;98351.50;;;26.62;100.00
20156;BME280;10238;49.556;10.956;2022-07-23T12:13:56;98345.94;;;27.10;100.00
20156;BME280;10238;49.556;10.956;2022-07-23T12:16:26;98342.94;;;27.44;100.00
20156;BME280;10238;49.556;10.956;2022-07-23T12:18:56;98338.69;;;27.63;96.37
20156;BME280;10238;49.556;10.956;2022-07-23T12:21:25;98335.09;;;27.99;91.89
20156;BME280;10238;49.556;10.956;2022-07-23T12:24:08;98320.28;;;28.46;89.63
20156;BME280;10238;49.556;10.956;2022-07-23T12:26:59;98316.78;;;28.66;89.88
20156;BME280;10238;49.556;10.956;2022-07-23T12:29:35;98313.78;;;29.33;85.55
20156;BME280;10238;49.556;10.956;2022-07-23T12:32:18;98312.94;;;29.72;79.91
20156;BME280;10238;49.556;10.956;2022-07-23T12:34:50;98308.13;;;30.18;75.96
20156;BME280;10238;49.556;10.956;2022-07-23T12:37:29;98305.66;;;30.65;74.40
20156;BME280;10238;49.556;10.956;2022-07-23T12:40:29;98300.91;;;31.14;68.57
20156;BME280;10238;49.556;10.956;2022-07-23T12:43:19;98301.81;;;31.67;70.06
20156;BME280;10238;49.556;10.956;2022-07-23T12:46:06;98289.47;;;31.64;63.38
20156;BME280;10238;49.556;10.956;2022-07-23T12:48:37;98289.25;;;31.56;60.30
20156;BME280;10238;49.556;10.956;2022-07-23T12:51:09;98292.28;;;31.31;62.92
20156;BME280;10238;49.556;10.956;2022-07-23T12:53:50;98287.88;;;31.58;62.34
20156;BME280;10238;49.556;10.956;2022-07-23T12:56:26;98290.09;;;31.56;60.13
20156;BME280;10238;49.556;10.956;2022-07-23T12:58:59;98284.47;;;31.66;63.35
20156;BME280;10238;49.556;10.956;2022-07-23T13:01:36;98287.09;;;31.81;59.22
20156;BME280;10238;49.556;10.956;2022-07-23T13:04:07;98277.78;;;32.01;58.87
20156;BME280;10238;49.556;10.956;2022-07-23T13:06:43;98277.56;;;32.39;59.17